createdAt,value
2022-10-02T00:00:34.241Z,4.10
2022-10-02T00:03:06.261Z,4.90
2022-10-02T00:05:36.331Z,4.00
2022-10-02T00:08:04.856Z,3.73
2022-10-02T00:10:34.120Z,3.53
2022-10-02T00:13:03.111Z,3.87
2022-10-02T00:15:32.113Z,3.70
2022-10-02T00:18:02.676Z,3.80
2022-10-02T00:20:35.236Z,3.97
2022-10-02T00:23:04.015Z,4.93
2022-10-02T00:25:34.457Z,3.90
2022-10-02T00:28:20.912Z,4.00
2022-10-02T00:31:04.080Z,3.90
2022-10-02T00:33:34.434Z,4.50
2022-10-02T00:36:09.531Z,4.67
2022-10-02T00:38:44.388Z,3.67
2022-10-02T00:41:32.800Z,4.50
2022-10-02T00:44:17.325Z,3.67
2022-10-02T00:46:48.230Z,4.43
2022-10-02T00:49:36.066Z,3.90
2022-10-02T00:52:25.435Z,4.27
2022-10-02T00:55:06.286Z,4.57
2022-10-02T00:57:42.016Z,4.60
2022-10-02T01:00:10.840Z,3.40
2022-10-02T01:03:04.082Z,4.50
2022-10-02T01:05:31.684Z,3.67
2022-10-02T01:08:00.805Z,4.10
2022-10-02T01:10:28.425Z,4.63
2022-10-02T01:12:56.462Z,4.17
2022-10-02T01:15:25.025Z,4.07
2022-10-02T01:17:52.869Z,3.67
2022-10-02T01:20:23.590Z,3.80
2022-10-02T01:22:54.540Z,4.90
2022-10-02T01:25:23.664Z,4.03
2022-10-02T01:27:51.539Z,3.93
2022-10-02T01:30:20.133Z,4.47
2022-10-02T01:32:50.153Z,4.27
2022-10-02T01:35:18.049Z,3.90
2022-10-02T01:37:45.589Z,4.63
2022-10-02T01:40:26.159Z,4.37
2022-10-02T01:42:53.770Z,4.23
2022-10-02T01:45:23.367Z,4.87
2022-10-02T01:47:52.674Z,4.77
2022-10-02T01:50:23.605Z,4.80
2022-10-02T01:52:54.404Z,4.80
2022-10-02T01:55:28.251Z,4.57
2022-10-02T01:58:01.018Z,4.30
2022-10-02T02:00:29.173Z,4.57
2022-10-02T02:02:59.260Z,5.10
2022-10-02T02:05:36.643Z,4.30
2022-10-02T02:08:08.403Z,5.20
2022-10-02T02:10:42.956Z,4.57
2022-10-02T02:13:12.600Z,4.70
2022-10-02T02:15:41.541Z,4.90
2022-10-02T02:18:12.127Z,5.00
2022-10-02T02:20:43.757Z,4.80
2022-10-02T02:23:19.082Z,5.40
2022-10-02T02:25:50.444Z,5.47
2022-10-02T02:28:19.610Z,4.87
2022-10-02T02:30:47.643Z,5.40
2022-10-02T02:33:17.972Z,6.13
2022-10-02T02:35:47.283Z,5.53
2022-10-02T02:38:17.528Z,5.33
2022-10-02T02:40:45.254Z,5.93
2022-10-02T02:43:16.154Z,6.07
2022-10-02T02:45:45.794Z,6.53
2022-10-02T02:48:15.773Z,6.43
2022-10-02T02:50:45.183Z,5.40
2022-10-02T02:53:13.972Z,6.30
2022-10-02T02:55:45.161Z,5.63
2022-10-02T02:58:16.145Z,5.67
2022-10-02T03:00:43.762Z,5.30
2022-10-02T03:03:11.619Z,6.00
2022-10-02T03:05:40.467Z,6.10
2022-10-02T03:08:19.210Z,5.10
2022-10-02T03:10:51.649Z,5.67
2022-10-02T03:13:29.307Z,5.67
2022-10-02T03:16:04.975Z,5.83
2022-10-02T03:18:51.053Z,6.30
2022-10-02T03:21:20.989Z,4.73
2022-10-02T03:23:58.735Z,5.37
2022-10-02T03:26:31.153Z,5.53
2022-10-02T03:29:00.656Z,6.63
2022-10-02T03:31:29.494Z,5.93
2022-10-02T03:33:57.721Z,6.23
2022-10-02T03:36:25.467Z,6.10
2022-10-02T03:39:12.511Z,5.90
2022-10-02T03:41:40.968Z,5.83
2022-10-02T03:44:10.044Z,5.90
2022-10-02T03:46:37.867Z,5.57
2022-10-02T03:49:05.889Z,6.00
2022-10-02T03:51:33.453Z,6.80
2022-10-02T03:54:01.154Z,5.27
2022-10-02T03:56:34.537Z,6.83
2022-10-02T03:59:02.694Z,7.13
2022-10-02T04:01:33.384Z,7.03
2022-10-02T04:04:03.094Z,7.27
2022-10-02T04:06:38.170Z,5.50
2022-10-02T04:09:07.593Z,5.40
2022-10-02T04:11:37.295Z,4.83
2022-10-02T04:14:07.046Z,4.33
2022-10-02T04:16:37.995Z,3.60
2022-10-02T04:19:08.457Z,2.97
2022-10-02T04:21:37.754Z,3.40
2022-10-02T04:24:10.522Z,2.80
2022-10-02T04:26:40.150Z,2.80
2022-10-02T04:29:12.921Z,2.30
2022-10-02T04:31:42.300Z,2.73
2022-10-02T04:34:11.413Z,2.30
2022-10-02T04:36:43.283Z,2.53
2022-10-02T04:39:49.887Z,2.53
2022-10-02T04:42:23.757Z,2.70
2022-10-02T04:44:59.249Z,2.70
2022-10-02T04:47:43.124Z,2.40
2022-10-02T04:50:18.734Z,2.73
2022-10-02T04:52:57.863Z,2.70
2022-10-02T04:55:40.510Z,2.30
2022-10-02T04:58:21.462Z,2.47
2022-10-02T05:00:50.469Z,2.00
2022-10-02T05:03:27.648Z,1.97
2022-10-02T05:06:01.015Z,1.93
2022-10-02T05:08:39.389Z,1.70
2022-10-02T05:11:13.870Z,1.60
2022-10-02T05:13:59.599Z,1.53
2022-10-02T05:19:04.573Z,1.80
2022-10-02T05:21:43.613Z,1.53
2022-10-02T05:24:23.198Z,1.40
2022-10-02T05:27:13.846Z,1.40
2022-10-02T05:29:58.974Z,1.50
2022-10-02T05:32:42.973Z,1.30
2022-10-02T05:35:20.547Z,1.53
2022-10-02T05:37:54.001Z,1.97
2022-10-02T05:40:25.100Z,2.00
2022-10-02T05:42:57.023Z,1.87
2022-10-02T05:45:27.598Z,1.90
2022-10-02T05:47:56.649Z,1.93
2022-10-02T05:50:27.345Z,2.47
2022-10-02T05:52:56.162Z,2.00
2022-10-02T05:55:25.687Z,3.33
2022-10-02T05:57:53.965Z,2.20
2022-10-02T06:00:27.223Z,3.83
2022-10-02T06:02:57.932Z,3.80
2022-10-02T06:05:28.736Z,3.80
2022-10-02T06:07:58.382Z,4.23
2022-10-02T06:10:28.060Z,4.87
2022-10-02T06:12:58.456Z,4.80
2022-10-02T06:15:27.802Z,4.67
2022-10-02T06:17:56.789Z,4.90
2022-10-02T06:20:26.868Z,5.27
2022-10-02T06:22:56.508Z,4.70
2022-10-02T06:25:26.436Z,5.00
2022-10-02T06:27:56.493Z,4.60
2022-10-02T06:30:24.094Z,3.80
2022-10-02T06:32:55.222Z,3.70
2022-10-02T06:35:33.240Z,3.70
2022-10-02T06:38:07.089Z,3.57
2022-10-02T06:40:46.659Z,4.03
2022-10-02T06:43:24.943Z,4.17
2022-10-02T06:45:58.602Z,3.30
2022-10-02T06:48:26.736Z,3.67
2022-10-02T06:50:59.044Z,4.37
2022-10-02T06:53:37.404Z,3.83
2022-10-02T06:56:11.691Z,4.77
2022-10-02T06:58:47.462Z,4.93
2022-10-02T07:01:20.838Z,4.73
2022-10-02T07:04:05.098Z,5.00
2022-10-02T07:06:40.208Z,5.13
2022-10-02T07:09:21.722Z,5.10
2022-10-02T07:11:52.940Z,4.50
2022-10-02T07:14:47.746Z,4.50
2022-10-02T07:17:31.139Z,5.07
2022-10-02T07:20:11.014Z,4.63
2022-10-02T07:22:49.265Z,4.90
2022-10-02T07:25:35.442Z,4.97
2022-10-02T07:28:07.233Z,4.53
2022-10-02T07:30:38.566Z,4.77
2022-10-02T07:33:09.208Z,4.87
2022-10-02T07:35:41.970Z,4.40
2022-10-02T07:38:19.902Z,4.80
2022-10-02T07:40:51.835Z,4.00
2022-10-02T07:43:33.492Z,4.47
2022-10-02T07:46:03.921Z,4.97
2022-10-02T07:48:38.791Z,4.20
2022-10-02T07:51:30.847Z,4.10
2022-10-02T07:54:03.948Z,3.63
2022-10-02T07:56:31.765Z,4.27
2022-10-02T07:59:01.060Z,4.50
2022-10-02T08:01:30.298Z,4.50
2022-10-02T08:03:59.753Z,4.93
2022-10-02T08:06:27.837Z,4.30
2022-10-02T08:08:57.676Z,4.43
2022-10-02T08:11:30.310Z,4.50
2022-10-02T08:13:59.192Z,4.33
2022-10-02T08:16:32.355Z,4.43
2022-10-02T08:19:01.415Z,4.30
2022-10-02T08:21:29.101Z,4.63
2022-10-02T08:23:59.272Z,4.40
2022-10-02T08:26:35.194Z,5.27
2022-10-02T08:29:06.478Z,4.77
2022-10-02T08:31:34.222Z,4.90
2022-10-02T08:34:02.298Z,5.50
2022-10-02T08:36:58.278Z,4.40
2022-10-02T08:39:46.138Z,4.67
2022-10-02T08:42:32.111Z,5.27
2022-10-02T08:45:29.074Z,4.90
2022-10-02T08:48:23.551Z,4.67
2022-10-02T08:51:09.363Z,5.13
2022-10-02T08:54:18.502Z,6.00
2022-10-02T08:57:01.549Z,6.67
2022-10-02T08:59:52.604Z,6.20
2022-10-02T09:03:07.904Z,6.90
2022-10-02T09:06:07.770Z,6.43
2022-10-02T09:08:59.935Z,5.97
2022-10-02T09:11:50.277Z,6.10
2022-10-02T09:14:30.951Z,6.03
2022-10-02T09:17:16.671Z,6.23
2022-10-02T09:19:50.684Z,6.13
2022-10-02T09:22:35.057Z,5.93
2022-10-02T09:25:14.136Z,6.20
2022-10-02T09:28:08.601Z,5.87
2022-10-02T09:30:47.808Z,6.63
2022-10-02T09:33:47.264Z,6.03
2022-10-02T09:36:52.023Z,6.00
2022-10-02T09:39:51.614Z,5.80
2022-10-02T09:42:46.697Z,6.57
2022-10-02T09:45:41.015Z,6.60
2022-10-02T09:48:51.283Z,6.00
2022-10-02T09:51:53.129Z,5.27
2022-10-02T09:54:57.966Z,5.03
2022-10-02T09:58:06.204Z,4.47
2022-10-02T10:00:49.753Z,4.73
2022-10-02T10:03:36.356Z,4.27
2022-10-02T10:06:29.466Z,3.43
2022-10-02T10:09:15.407Z,3.47
2022-10-02T10:12:26.617Z,3.17
2022-10-02T10:15:18.530Z,2.97
2022-10-02T10:18:21.152Z,2.50
2022-10-02T10:21:46.829Z,2.60
2022-10-02T10:24:33.950Z,2.57
2022-10-02T10:27:14.519Z,2.70
2022-10-02T10:30:22.269Z,3.07
2022-10-02T10:33:25.283Z,3.10
2022-10-02T10:36:33.556Z,2.73
2022-10-02T10:39:08.475Z,2.50
2022-10-02T10:41:49.489Z,2.90
2022-10-02T10:44:42.001Z,2.33
2022-10-02T10:47:34.659Z,2.77
2022-10-02T10:50:47.923Z,3.03
2022-10-02T10:53:39.097Z,2.80
2022-10-02T10:56:29.178Z,3.13
2022-10-02T10:59:25.265Z,3.90
2022-10-02T11:02:02.580Z,3.90
2022-10-02T11:04:54.439Z,3.43
2022-10-02T11:07:35.070Z,3.03
2022-10-02T11:10:12.074Z,3.35
2022-10-02T11:13:03.075Z,3.75
2022-10-02T11:15:59.198Z,3.50
2022-10-02T11:18:34.540Z,4.20
2022-10-02T11:21:32.637Z,4.18
2022-10-02T11:24:29.223Z,4.40
2022-10-02T11:27:05.754Z,3.72
2022-10-02T11:30:10.268Z,3.80
2022-10-02T11:32:54.312Z,3.72
2022-10-02T11:35:29.334Z,3.88
2022-10-02T11:38:36.963Z,3.85
2022-10-02T11:41:20.653Z,3.70
2022-10-02T11:44:09.567Z,4.20
2022-10-02T11:47:01.374Z,3.92
2022-10-02T11:49:37.297Z,3.53
2022-10-02T11:52:27.285Z,3.70
2022-10-02T11:55:00.755Z,3.40
2022-10-02T11:57:33.027Z,3.03
2022-10-02T12:00:14.758Z,3.60
2022-10-02T12:02:47.697Z,3.20
2022-10-02T12:05:25.468Z,3.08
2022-10-02T12:07:58.303Z,3.10
2022-10-02T12:10:46.906Z,2.80
2022-10-02T12:13:24.576Z,3.50
2022-10-02T12:15:56.238Z,3.50
2022-10-02T12:18:38.754Z,3.83
2022-10-02T12:21:31.700Z,3.47
2022-10-02T12:24:20.364Z,3.97
2022-10-02T12:27:00.205Z,3.92
2022-10-02T12:29:35.761Z,3.28
2022-10-02T12:32:08.129Z,3.20
2022-10-02T12:34:42.330Z,3.10
2022-10-02T12:37:12.199Z,3.60
2022-10-02T12:39:45.030Z,3.42
2022-10-02T12:42:26.682Z,4.18
2022-10-02T12:47:40.171Z,3.67
2022-10-02T12:50:24.273Z,3.88
2022-10-02T12:53:30.716Z,3.53
2022-10-02T12:56:34.258Z,3.42
2022-10-02T12:59:05.107Z,3.05
2022-10-02T13:02:42.889Z,3.08
2022-10-02T13:05:47.432Z,3.47
2022-10-02T13:08:37.866Z,4.40
2022-10-02T13:11:10.304Z,3.50
2022-10-02T13:13:55.255Z,3.75
2022-10-02T13:16:26.551Z,3.30
2022-10-02T13:19:10.323Z,3.58
2022-10-02T13:21:47.288Z,3.28
2022-10-02T13:24:28.458Z,2.70
2022-10-02T13:26:58.921Z,2.75
2022-10-02T13:29:40.487Z,3.20
2022-10-02T13:32:22.634Z,2.95
2022-10-02T13:34:58.641Z,2.88
2022-10-02T13:37:33.095Z,3.63
2022-10-02T13:40:21.393Z,3.45
2022-10-02T13:43:04.292Z,2.72
2022-10-02T13:45:34.341Z,2.70
2022-10-02T13:48:05.694Z,2.88
2022-10-02T13:50:45.093Z,2.88
2022-10-02T13:53:45.434Z,2.67
2022-10-02T13:56:21.575Z,2.70
2022-10-02T13:59:05.221Z,3.20
2022-10-02T14:01:36.943Z,2.90
2022-10-02T14:04:14.158Z,3.65
2022-10-02T14:06:43.697Z,3.55
2022-10-02T14:09:18.920Z,3.88
2022-10-02T14:11:56.316Z,3.00
2022-10-02T14:14:30.038Z,3.47
2022-10-02T14:17:03.128Z,3.50
2022-10-02T14:19:56.409Z,3.65
2022-10-02T14:22:33.762Z,3.85
2022-10-02T14:25:23.142Z,3.53
2022-10-02T14:28:23.035Z,3.47
2022-10-02T14:30:57.776Z,3.90
2022-10-02T14:33:30.896Z,3.75
2022-10-02T14:36:01.126Z,3.67
2022-10-02T14:38:35.347Z,3.60
2022-10-02T14:41:10.771Z,3.63
2022-10-02T14:43:47.157Z,3.42
2022-10-02T14:46:39.314Z,3.67
2022-10-02T14:49:30.403Z,4.57
2022-10-02T14:52:05.812Z,3.85
2022-10-02T14:54:41.832Z,4.22
2022-10-02T14:57:21.167Z,3.97
2022-10-02T15:00:13.648Z,4.10
2022-10-02T15:03:07.706Z,3.80
2022-10-02T15:05:41.850Z,4.13
2022-10-02T15:08:13.757Z,4.38
2022-10-02T15:10:42.371Z,3.78
2022-10-02T15:13:13.467Z,3.95
2022-10-02T15:15:42.323Z,3.42
2022-10-02T15:18:20.132Z,3.17
2022-10-02T15:20:59.329Z,3.65
2022-10-02T15:23:44.186Z,3.50
2022-10-02T15:26:34.033Z,3.65
2022-10-02T15:29:10.913Z,3.93
2022-10-02T15:31:41.201Z,3.20
2022-10-02T15:34:15.788Z,3.58
2022-10-02T15:36:50.129Z,3.40
2022-10-02T15:39:30.878Z,3.70
2022-10-02T15:42:04.828Z,4.17
2022-10-02T15:44:58.564Z,4.17
2022-10-02T15:47:42.872Z,4.83
2022-10-02T15:50:18.577Z,4.00
2022-10-02T15:52:51.135Z,4.03
2022-10-02T15:55:21.674Z,4.60
2022-10-02T15:58:14.041Z,4.67
2022-10-02T16:01:01.644Z,4.70
2022-10-02T16:03:32.822Z,4.27
2022-10-02T16:06:02.069Z,4.27
2022-10-02T16:08:45.153Z,4.17
2022-10-02T16:11:24.815Z,4.70
2022-10-02T16:13:54.239Z,4.60
2022-10-02T16:16:47.356Z,5.00
2022-10-02T16:19:19.108Z,4.17
2022-10-02T16:21:55.228Z,5.23
2022-10-02T16:24:39.437Z,5.43
2022-10-02T16:27:23.249Z,4.53
2022-10-02T16:30:02.355Z,5.43
2022-10-02T16:32:34.269Z,6.53
2022-10-02T16:35:17.622Z,5.87
2022-10-02T16:37:46.609Z,6.17
2022-10-02T16:40:26.793Z,5.30
2022-10-02T16:43:14.240Z,4.40
2022-10-02T16:45:54.243Z,7.03
2022-10-02T16:48:24.445Z,4.97
2022-10-02T16:51:11.535Z,5.07
2022-10-02T16:53:42.723Z,5.17
2022-10-02T16:56:12.301Z,6.43
2022-10-02T16:58:43.916Z,6.33
2022-10-02T17:01:23.694Z,6.73
2022-10-02T17:04:23.482Z,5.90
2022-10-02T17:06:53.466Z,6.77
2022-10-02T17:09:23.784Z,6.13
2022-10-02T17:11:53.320Z,6.87
2022-10-02T17:14:23.120Z,8.03
2022-10-02T17:16:55.660Z,6.80
2022-10-02T17:19:27.151Z,6.83
2022-10-02T17:21:56.385Z,8.17
2022-10-02T17:24:32.359Z,6.00
2022-10-02T17:27:08.679Z,19.90
2022-10-02T17:29:39.256Z,4.63
2022-10-02T17:32:09.321Z,4.43
2022-10-02T17:34:46.397Z,4.13
2022-10-02T17:37:44.755Z,4.43
2022-10-02T17:40:13.930Z,4.53
2022-10-02T17:45:29.017Z,4.47
2022-10-02T17:48:21.834Z,6.47
2022-10-02T17:51:31.020Z,3.87
2022-10-02T17:54:23.405Z,3.90
2022-10-02T17:57:17.794Z,3.43
2022-10-02T18:00:03.520Z,3.80
2022-10-02T18:03:05.266Z,3.30
2022-10-02T18:05:38.002Z,3.33
2022-10-02T18:08:18.054Z,3.60
2022-10-02T18:10:49.887Z,3.87
2022-10-02T18:13:23.553Z,4.33
2022-10-02T18:16:09.175Z,4.03
2022-10-02T18:18:39.907Z,4.07
2022-10-02T18:21:24.071Z,4.17
2022-10-02T18:24:02.747Z,6.73
2022-10-02T18:26:35.316Z,7.83
2022-10-02T18:29:26.844Z,6.27
2022-10-02T18:32:08.689Z,5.43
2022-10-02T18:34:45.695Z,4.13
2022-10-02T18:37:24.924Z,5.03
2022-10-02T18:40:04.831Z,3.73
2022-10-02T18:42:52.668Z,3.80
2022-10-02T18:45:29.397Z,3.67
2022-10-02T18:50:40.491Z,4.27
2022-10-02T18:53:21.672Z,3.80
2022-10-02T18:56:03.571Z,3.90
2022-10-02T18:58:52.601Z,4.20
2022-10-02T19:01:42.659Z,4.43
2022-10-02T19:04:22.995Z,4.03
2022-10-02T19:06:52.227Z,4.00
2022-10-02T19:09:23.101Z,4.23
2022-10-02T19:11:56.736Z,3.70
2022-10-02T19:14:30.049Z,4.30
2022-10-02T19:16:58.845Z,3.53
2022-10-02T19:19:27.827Z,4.33
2022-10-02T19:21:59.281Z,3.90
2022-10-02T19:24:28.328Z,4.67
2022-10-02T19:26:59.539Z,4.27
2022-10-02T19:29:30.491Z,4.27
2022-10-02T19:31:59.630Z,4.43
2022-10-02T19:34:28.784Z,4.50
2022-10-02T19:36:58.773Z,4.60
2022-10-02T19:39:30.513Z,4.00
2022-10-02T19:42:03.025Z,4.40
2022-10-02T19:44:32.846Z,4.33
2022-10-02T19:47:02.293Z,3.77
2022-10-02T19:49:32.204Z,4.87
2022-10-02T19:51:59.786Z,4.47
2022-10-02T19:54:28.486Z,4.50
2022-10-02T19:56:57.821Z,4.10
2022-10-02T19:59:28.703Z,4.30
2022-10-02T20:01:58.025Z,3.97
2022-10-02T20:04:26.949Z,5.40
2022-10-02T20:06:56.558Z,4.80
2022-10-02T20:09:27.277Z,5.17
2022-10-02T20:11:56.004Z,4.50
2022-10-02T20:14:25.105Z,5.27
2022-10-02T20:17:16.855Z,5.60
2022-10-02T20:19:46.759Z,5.40
2022-10-02T20:22:19.163Z,4.87
2022-10-02T20:24:50.588Z,5.73
2022-10-02T20:27:20.477Z,5.40
2022-10-02T20:29:50.335Z,5.60
2022-10-02T20:32:21.707Z,6.40
2022-10-02T20:34:53.410Z,6.37
2022-10-02T20:37:23.106Z,5.63
2022-10-02T20:39:55.191Z,6.10
2022-10-02T20:42:27.249Z,5.77
2022-10-02T20:44:54.974Z,5.60
2022-10-02T20:47:50.279Z,5.67
2022-10-02T20:50:40.409Z,6.47
2022-10-02T20:53:31.016Z,5.83
2022-10-02T20:56:00.715Z,5.90
2022-10-02T20:58:36.029Z,6.10
2022-10-02T21:01:13.401Z,6.10
2022-10-02T21:03:55.576Z,6.60
2022-10-02T21:06:39.199Z,7.93
2022-10-02T21:09:47.777Z,6.90
2022-10-02T21:12:33.460Z,6.43
2022-10-02T21:15:41.292Z,7.17
2022-10-02T21:18:50.733Z,7.23
2022-10-02T21:21:40.370Z,6.43
2022-10-02T21:24:21.053Z,6.17
2022-10-02T21:27:08.154Z,6.13
2022-10-02T21:29:53.941Z,6.23
2022-10-02T21:32:31.807Z,6.30
2022-10-02T21:35:16.827Z,6.57
2022-10-02T21:37:58.420Z,5.93
2022-10-02T21:40:56.122Z,6.27
2022-10-02T21:44:05.753Z,5.83
2022-10-02T21:46:54.683Z,6.53
2022-10-02T21:49:42.839Z,5.97
2022-10-02T21:52:58.675Z,6.20
2022-10-02T21:55:41.294Z,5.77
2022-10-02T21:58:39.593Z,5.60
2022-10-02T22:01:27.836Z,5.97
2022-10-02T22:04:19.865Z,6.40
2022-10-02T22:06:54.505Z,6.20
2022-10-02T22:09:32.889Z,6.63
2022-10-02T22:12:11.587Z,6.20
2022-10-02T22:14:40.486Z,6.73
2022-10-02T22:17:13.969Z,6.33
2022-10-02T22:19:51.712Z,7.00
2022-10-02T22:22:25.432Z,6.73
2022-10-02T22:25:02.594Z,7.67
2022-10-02T22:27:47.480Z,8.07
2022-10-02T22:30:23.877Z,7.73
2022-10-02T22:33:13.058Z,7.57
2022-10-02T22:35:52.706Z,6.93
2022-10-02T22:38:22.569Z,7.33
2022-10-02T22:40:52.361Z,7.47
2022-10-02T22:43:25.592Z,7.77
2022-10-02T22:45:55.684Z,7.13
2022-10-02T22:48:27.904Z,7.57
2022-10-02T22:50:56.734Z,7.53
2022-10-02T22:53:26.924Z,7.40
2022-10-02T22:55:55.350Z,6.57
2022-10-02T22:58:30.268Z,6.50
2022-10-02T23:01:01.939Z,6.10
2022-10-02T23:03:37.464Z,5.80
2022-10-02T23:06:06.049Z,6.17
2022-10-02T23:08:35.990Z,6.10
2022-10-02T23:11:08.318Z,5.50
2022-10-02T23:13:38.626Z,5.60
2022-10-02T23:16:07.619Z,5.83
2022-10-02T23:18:39.557Z,5.60
2022-10-02T23:21:23.951Z,5.53
2022-10-02T23:23:55.842Z,5.87
2022-10-02T23:26:29.033Z,5.90
2022-10-02T23:29:06.571Z,5.70
2022-10-02T23:31:35.451Z,6.37
2022-10-02T23:34:12.545Z,6.17
2022-10-02T23:36:45.909Z,6.03
2022-10-02T23:39:15.677Z,7.00
2022-10-02T23:41:47.830Z,5.97
2022-10-02T23:44:23.200Z,6.50
2022-10-02T23:47:00.505Z,6.40
2022-10-02T23:49:32.756Z,6.77
2022-10-02T23:52:06.607Z,6.10
2022-10-02T23:54:44.446Z,7.27
2022-10-02T23:57:36.051Z,7.10
